createdAt,value
2019-03-25T00:00:19.525Z,366.75
2019-03-25T00:02:49.374Z,362.02
2019-03-25T00:05:19.218Z,368.67
2019-03-25T00:07:48.904Z,365.02
2019-03-25T00:10:18.696Z,355.95
2019-03-25T00:12:48.423Z,361.40
2019-03-25T00:15:18.124Z,348.55
2019-03-25T00:17:47.741Z,373.45
2019-03-25T00:20:17.515Z,365.95
2019-03-25T00:22:47.132Z,359.40
2019-03-25T00:25:16.956Z,361.82
2019-03-25T00:27:46.526Z,365.23
2019-03-25T00:30:16.482Z,354.63
2019-03-25T00:32:46.130Z,361.30
2019-03-25T00:35:15.739Z,352.82
2019-03-25T00:37:45.384Z,377.90
2019-03-25T00:40:15.106Z,348.73
2019-03-25T00:42:44.780Z,342.62
2019-03-25T00:45:14.573Z,360.25
2019-03-25T00:47:44.187Z,342.13
2019-03-25T00:50:14.087Z,331.45
2019-03-25T00:52:43.721Z,332.92
2019-03-25T00:55:13.478Z,356.10
2019-03-25T00:57:43.145Z,347.45
2019-03-25T01:00:13.381Z,344.10
2019-03-25T01:02:43.147Z,359.37
2019-03-25T01:05:14.655Z,361.98
2019-03-25T01:07:44.414Z,352.07
2019-03-25T01:10:14.791Z,352.30
2019-03-25T01:12:44.458Z,342.25
2019-03-25T01:15:14.193Z,361.27
2019-03-25T01:17:43.853Z,350.32
2019-03-25T01:20:13.608Z,351.10
2019-03-25T01:22:43.340Z,341.77
2019-03-25T01:25:12.972Z,380.40
2019-03-25T01:27:42.570Z,350.85
2019-03-25T01:30:12.327Z,370.07
2019-03-25T01:32:42.042Z,352.07
2019-03-25T01:35:11.774Z,376.82
2019-03-25T01:37:41.446Z,354.18
2019-03-25T01:40:11.206Z,369.45
2019-03-25T01:42:40.822Z,360.97
2019-03-25T01:45:10.612Z,354.07
2019-03-25T01:47:40.346Z,359.07
2019-03-25T01:50:10.235Z,340.80
2019-03-25T01:52:39.977Z,368.23
2019-03-25T01:55:13.593Z,378.55
2019-03-25T01:57:41.226Z,369.62
2019-03-25T02:00:11.934Z,372.98
2019-03-25T02:02:41.669Z,377.15
2019-03-25T02:05:11.310Z,358.43
2019-03-25T02:07:40.937Z,350.98
2019-03-25T02:10:11.113Z,371.63
2019-03-25T02:12:40.839Z,359.25
2019-03-25T02:15:10.721Z,369.23
2019-03-25T02:17:40.551Z,339.42
2019-03-25T02:20:10.457Z,361.03
2019-03-25T02:22:40.211Z,343.23
2019-03-25T02:25:10.047Z,340.20
2019-03-25T02:27:39.839Z,340.68
2019-03-25T02:30:09.725Z,366.98
2019-03-25T02:32:39.499Z,363.73
2019-03-25T02:35:09.219Z,362.12
2019-03-25T02:37:38.894Z,390.60
2019-03-25T02:40:08.724Z,374.25
2019-03-25T02:42:38.415Z,346.48
2019-03-25T02:45:08.538Z,362.17
2019-03-25T02:47:38.118Z,366.73
2019-03-25T02:50:08.666Z,367.57
2019-03-25T02:52:38.308Z,353.40
2019-03-25T02:55:08.340Z,350.02
2019-03-25T02:57:37.978Z,363.02
2019-03-25T03:00:08.496Z,348.95
2019-03-25T03:02:38.134Z,377.55
2019-03-25T03:05:08.211Z,350.18
2019-03-25T03:07:37.858Z,342.00
2019-03-25T03:10:08.491Z,363.77
2019-03-25T03:12:38.187Z,367.07
2019-03-25T03:15:08.331Z,353.53
2019-03-25T03:17:37.988Z,352.57
2019-03-25T03:20:08.028Z,388.27
2019-03-25T03:22:37.646Z,350.77
2019-03-25T03:25:07.570Z,379.82
2019-03-25T03:27:37.223Z,380.02
2019-03-25T03:30:07.587Z,375.10
2019-03-25T03:32:37.379Z,376.42
2019-03-25T03:35:07.553Z,358.77
2019-03-25T03:37:37.294Z,374.45
2019-03-25T03:40:07.264Z,361.68
2019-03-25T03:42:36.995Z,361.23
2019-03-25T03:45:07.015Z,361.52
2019-03-25T03:47:36.734Z,364.30
2019-03-25T03:50:08.294Z,355.67
2019-03-25T03:52:38.435Z,360.95
2019-03-25T03:55:08.252Z,374.88
2019-03-25T03:57:38.136Z,392.90
2019-03-25T04:00:08.210Z,383.62
2019-03-25T04:02:37.920Z,370.95
2019-03-25T04:05:07.596Z,373.65
2019-03-25T04:07:37.269Z,368.63
2019-03-25T04:10:07.225Z,369.82
2019-03-25T04:12:37.106Z,377.25
2019-03-25T04:15:07.977Z,398.62
2019-03-25T04:17:37.651Z,389.90
2019-03-25T04:20:08.299Z,387.90
2019-03-25T04:22:37.859Z,385.27
2019-03-25T04:25:07.635Z,359.23
2019-03-25T04:27:37.274Z,384.85
2019-03-25T04:30:07.593Z,378.85
2019-03-25T04:32:37.313Z,388.32
2019-03-25T04:35:07.044Z,374.10
2019-03-25T04:37:36.764Z,390.30
2019-03-25T04:40:07.886Z,394.32
2019-03-25T04:42:37.521Z,386.37
2019-03-25T04:45:07.944Z,374.80
2019-03-25T04:47:37.630Z,378.07
2019-03-25T04:50:07.478Z,370.63
2019-03-25T04:52:37.113Z,397.83
2019-03-25T04:55:07.344Z,380.70
2019-03-25T04:57:37.062Z,363.73
2019-03-25T05:00:07.220Z,393.48
2019-03-25T05:02:36.851Z,401.77
2019-03-25T05:05:08.640Z,378.48
2019-03-25T05:07:38.244Z,379.93
2019-03-25T05:10:08.545Z,366.88
2019-03-25T05:12:38.329Z,371.27
2019-03-25T05:15:08.677Z,393.88
2019-03-25T05:17:38.295Z,389.17
2019-03-25T05:20:08.320Z,375.77
2019-03-25T05:22:37.933Z,388.37
2019-03-25T05:25:07.698Z,398.20
2019-03-25T05:27:37.265Z,379.50
2019-03-25T05:30:07.660Z,381.43
2019-03-25T05:32:37.329Z,377.48
2019-03-25T05:35:07.875Z,399.35
2019-03-25T05:37:37.571Z,407.77
2019-03-25T05:40:07.540Z,409.57
2019-03-25T05:42:37.234Z,395.73
2019-03-25T05:45:08.069Z,399.95
2019-03-25T05:47:37.686Z,405.90
2019-03-25T05:50:09.085Z,389.23
2019-03-25T05:52:39.076Z,397.10
2019-03-25T05:55:08.944Z,376.85
2019-03-25T05:57:38.631Z,397.37
2019-03-25T06:00:09.987Z,376.18
2019-03-25T06:02:39.597Z,368.48
2019-03-25T06:05:09.536Z,370.57
2019-03-25T06:07:39.148Z,398.35
2019-03-25T06:10:09.413Z,387.80
2019-03-25T06:12:39.133Z,372.17
2019-03-25T06:15:09.651Z,396.98
2019-03-25T06:17:39.310Z,388.42
2019-03-25T06:20:09.174Z,391.27
2019-03-25T06:22:38.805Z,397.80
2019-03-25T06:25:09.055Z,421.40
2019-03-25T06:27:38.678Z,409.70
2019-03-25T06:30:09.628Z,425.17
2019-03-25T06:32:39.288Z,380.52
2019-03-25T06:35:09.258Z,404.92
2019-03-25T06:37:38.939Z,420.02
2019-03-25T06:40:09.719Z,412.35
2019-03-25T06:42:39.342Z,428.95
2019-03-25T06:45:09.725Z,398.40
2019-03-25T06:47:39.720Z,403.43
2019-03-25T06:50:10.073Z,407.38
2019-03-25T06:52:39.813Z,405.33
2019-03-25T06:55:10.309Z,404.35
2019-03-25T06:57:40.035Z,388.45
2019-03-25T07:00:10.657Z,400.12
2019-03-25T07:02:40.292Z,392.57
2019-03-25T07:05:10.678Z,396.37
2019-03-25T07:07:40.425Z,381.08
2019-03-25T07:10:10.469Z,399.62
2019-03-25T07:12:40.126Z,390.98
2019-03-25T07:15:10.273Z,389.23
2019-03-25T07:17:40.050Z,384.77
2019-03-25T07:20:09.977Z,419.97
2019-03-25T07:22:39.760Z,407.67
2019-03-25T07:25:09.390Z,427.28
2019-03-25T07:27:38.974Z,416.35
2019-03-25T07:30:11.321Z,414.63
2019-03-25T07:32:40.286Z,403.93
2019-03-25T07:35:10.616Z,393.55
2019-03-25T07:37:40.309Z,409.52
2019-03-25T07:40:10.638Z,446.10
2019-03-25T07:42:42.792Z,416.88
2019-03-25T07:45:12.520Z,401.37
2019-03-25T07:47:42.218Z,401.63
2019-03-25T07:50:12.010Z,409.52
2019-03-25T07:52:41.684Z,398.80
2019-03-25T07:55:11.709Z,419.43
2019-03-25T07:57:48.069Z,420.32
2019-03-25T08:00:14.548Z,399.10
2019-03-25T08:02:44.420Z,458.30
2019-03-25T08:05:14.471Z,410.87
2019-03-25T08:07:44.129Z,424.52
2019-03-25T08:10:16.885Z,424.50
2019-03-25T08:12:46.466Z,407.95
2019-03-25T08:15:16.106Z,426.27
2019-03-25T08:17:45.809Z,403.27
2019-03-25T08:20:15.746Z,449.90
2019-03-25T08:22:45.413Z,423.73
2019-03-25T08:25:15.146Z,450.27
2019-03-25T08:27:44.774Z,414.55
2019-03-25T08:30:17.134Z,406.97
2019-03-25T08:32:46.781Z,424.08
2019-03-25T08:35:16.342Z,408.53
2019-03-25T08:37:46.189Z,450.70
2019-03-25T08:40:17.254Z,430.18
2019-03-25T08:42:46.920Z,449.88
2019-03-25T08:45:16.808Z,432.00
2019-03-25T08:47:46.532Z,410.78
2019-03-25T08:50:16.416Z,434.27
2019-03-25T08:52:46.007Z,423.28
2019-03-25T08:55:15.590Z,409.20
2019-03-25T08:57:45.256Z,404.32
2019-03-25T09:00:17.382Z,416.77
2019-03-25T09:02:47.108Z,425.80
2019-03-25T09:05:17.868Z,426.90
2019-03-25T09:07:47.494Z,417.77
2019-03-25T09:10:17.185Z,418.27
2019-03-25T09:12:46.878Z,413.98
2019-03-25T09:15:18.387Z,404.40
2019-03-25T09:17:48.025Z,398.65
2019-03-25T09:20:17.812Z,409.07
2019-03-25T09:22:48.520Z,411.32
2019-03-25T09:25:19.254Z,388.27
2019-03-25T09:27:49.043Z,416.65
2019-03-25T09:30:21.721Z,402.67
2019-03-25T09:32:51.462Z,432.07
2019-03-25T09:35:21.207Z,426.00
2019-03-25T09:37:52.763Z,459.57
2019-03-25T09:40:22.259Z,425.83
2019-03-25T09:42:51.926Z,406.47
2019-03-25T09:45:21.607Z,416.43
2019-03-25T09:47:51.245Z,409.30
2019-03-25T09:50:20.840Z,417.37
2019-03-25T09:52:50.435Z,409.52
2019-03-25T09:55:20.103Z,416.80
2019-03-25T09:57:49.857Z,405.00
2019-03-25T10:00:22.571Z,398.32
2019-03-25T10:02:52.241Z,383.90
2019-03-25T10:05:21.881Z,410.60
2019-03-25T10:07:51.527Z,414.63
2019-03-25T10:10:21.304Z,409.50
2019-03-25T10:12:51.054Z,418.43
2019-03-25T10:15:20.945Z,388.02
2019-03-25T10:17:50.550Z,380.40
2019-03-25T10:20:20.275Z,380.32
2019-03-25T10:22:49.948Z,401.65
2019-03-25T10:25:19.768Z,409.93
2019-03-25T10:27:49.387Z,421.05
2019-03-25T10:30:19.322Z,411.98
2019-03-25T10:32:49.149Z,412.55
2019-03-25T10:35:18.995Z,406.10
2019-03-25T10:37:48.792Z,439.85
2019-03-25T10:40:18.494Z,422.70
2019-03-25T10:42:48.253Z,420.23
2019-03-25T10:45:18.792Z,420.77
2019-03-25T10:47:48.475Z,460.07
2019-03-25T10:50:18.306Z,476.30
2019-03-25T10:52:48.160Z,457.38
2019-03-25T10:55:17.881Z,450.83
2019-03-25T10:57:47.584Z,436.37
2019-03-25T11:00:17.721Z,440.88
2019-03-25T11:02:47.458Z,475.60
2019-03-25T11:05:17.338Z,419.47
2019-03-25T11:07:46.949Z,436.25
2019-03-25T11:10:17.167Z,468.07
2019-03-25T11:12:46.824Z,471.75
2019-03-25T11:15:16.966Z,467.80
2019-03-25T11:17:46.602Z,441.60
2019-03-25T11:20:16.855Z,471.25
2019-03-25T11:22:46.558Z,447.70
2019-03-25T11:25:17.020Z,444.65
2019-03-25T11:27:54.237Z,416.55
2019-03-25T11:30:21.112Z,406.47
2019-03-25T11:32:50.750Z,420.32
2019-03-25T11:35:20.539Z,449.75
2019-03-25T11:37:50.248Z,409.05
2019-03-25T11:40:20.162Z,430.03
2019-03-25T11:42:49.909Z,408.92
2019-03-25T11:45:20.387Z,417.60
2019-03-25T11:47:49.971Z,384.70
2019-03-25T11:50:19.748Z,394.90
2019-03-25T11:52:49.380Z,389.40
2019-03-25T11:55:19.083Z,430.18
2019-03-25T11:57:48.747Z,397.60
2019-03-25T12:00:18.652Z,403.55
2019-03-25T12:02:48.359Z,416.92
2019-03-25T12:05:18.026Z,404.35
2019-03-25T12:07:47.745Z,417.65
2019-03-25T12:10:17.717Z,430.95
2019-03-25T12:12:47.626Z,394.80
2019-03-25T12:15:17.254Z,399.43
2019-03-25T12:17:47.031Z,389.48
2019-03-25T12:20:16.835Z,410.35
2019-03-25T12:22:46.482Z,407.38
2019-03-25T12:25:16.082Z,400.10
2019-03-25T12:27:45.913Z,435.93
2019-03-25T12:30:15.721Z,449.70
2019-03-25T12:32:45.461Z,477.13
2019-03-25T12:35:16.059Z,492.93
2019-03-25T12:37:45.794Z,482.38
2019-03-25T12:40:15.906Z,484.63
2019-03-25T12:42:45.672Z,465.25
2019-03-25T12:45:16.852Z,467.03
2019-03-25T12:47:46.450Z,487.10
2019-03-25T12:50:16.397Z,448.43
2019-03-25T12:52:46.215Z,438.93
2019-03-25T12:55:16.111Z,402.82
2019-03-25T12:57:45.741Z,419.32
2019-03-25T13:00:18.497Z,453.20
2019-03-25T13:02:48.125Z,453.98
2019-03-25T13:05:17.890Z,457.47
2019-03-25T13:07:47.567Z,436.50
2019-03-25T13:10:17.279Z,474.88
2019-03-25T13:12:46.894Z,426.43
2019-03-25T13:15:16.834Z,436.10
2019-03-25T13:17:46.440Z,444.02
2019-03-25T13:20:16.175Z,431.23
2019-03-25T13:22:45.909Z,467.85
2019-03-25T13:25:15.513Z,484.73
2019-03-25T13:27:45.207Z,417.50
2019-03-25T13:30:15.270Z,433.50
2019-03-25T13:32:44.990Z,414.67
2019-03-25T13:35:14.818Z,397.77
2019-03-25T13:37:44.543Z,406.93
2019-03-25T13:40:14.580Z,430.15
2019-03-25T13:42:45.152Z,486.73
2019-03-25T13:45:14.948Z,451.18
2019-03-25T13:47:45.652Z,423.28
2019-03-25T13:50:16.514Z,433.05
2019-03-25T13:52:46.108Z,421.63
2019-03-25T13:55:15.729Z,404.00
2019-03-25T13:57:45.561Z,412.70
2019-03-25T14:00:15.832Z,383.85
2019-03-25T14:02:45.446Z,377.57
2019-03-25T14:05:15.126Z,406.78
2019-03-25T14:07:44.741Z,411.03
2019-03-25T14:10:14.902Z,391.60
2019-03-25T14:12:44.519Z,380.57
2019-03-25T14:15:14.419Z,420.98
2019-03-25T14:17:44.079Z,442.77
2019-03-25T14:20:14.083Z,431.37
2019-03-25T14:22:43.726Z,418.27
2019-03-25T14:25:13.430Z,420.12
2019-03-25T14:27:44.179Z,418.15
2019-03-25T14:30:15.024Z,405.57
2019-03-25T14:32:44.871Z,425.80
2019-03-25T14:35:14.570Z,431.87
2019-03-25T14:37:44.175Z,390.77
2019-03-25T14:40:14.150Z,397.35
2019-03-25T14:42:43.951Z,412.92
2019-03-25T14:45:13.699Z,409.90
2019-03-25T14:47:43.416Z,427.25
2019-03-25T14:50:13.418Z,424.90
2019-03-25T14:52:43.104Z,443.33
2019-03-25T14:55:12.948Z,395.50
2019-03-25T14:57:42.596Z,414.07
2019-03-25T15:00:13.064Z,408.77
2019-03-25T15:02:42.668Z,419.28
2019-03-25T15:05:12.867Z,424.30
2019-03-25T15:07:42.502Z,453.93
2019-03-25T15:10:12.618Z,417.03
2019-03-25T15:12:42.424Z,442.15
2019-03-25T15:15:12.591Z,430.15
2019-03-25T15:17:42.141Z,418.90
2019-03-25T15:20:12.811Z,402.52
2019-03-25T15:22:42.427Z,392.48
2019-03-25T15:25:15.826Z,390.30
2019-03-25T15:27:45.186Z,433.72
2019-03-25T15:30:15.457Z,439.17
2019-03-25T15:32:45.207Z,423.75
2019-03-25T15:35:14.877Z,415.23
2019-03-25T15:37:44.573Z,389.23
2019-03-25T15:40:14.312Z,410.73
2019-03-25T15:42:44.101Z,456.02
2019-03-25T15:45:14.051Z,411.90
2019-03-25T15:47:46.899Z,425.40
2019-03-25T15:50:15.545Z,435.02
2019-03-25T15:52:45.353Z,429.98
2019-03-25T15:55:15.245Z,390.40
2019-03-25T15:57:45.951Z,387.72
2019-03-25T16:00:18.603Z,409.53
2019-03-25T16:02:48.351Z,416.73
2019-03-25T16:05:17.985Z,436.65
2019-03-25T16:07:47.760Z,436.47
2019-03-25T16:10:17.923Z,431.43
2019-03-25T16:12:47.545Z,402.47
2019-03-25T16:15:20.260Z,419.07
2019-03-25T16:17:49.847Z,400.40
2019-03-25T16:20:19.563Z,397.65
2019-03-25T16:22:49.385Z,432.08
2019-03-25T16:25:22.110Z,382.05
2019-03-25T16:27:51.809Z,394.18
2019-03-25T16:30:21.494Z,381.75
2019-03-25T16:32:51.130Z,394.80
2019-03-25T16:35:20.860Z,378.40
2019-03-25T16:37:50.483Z,373.00
2019-03-25T16:40:20.292Z,365.85
2019-03-25T16:42:49.871Z,367.55
2019-03-25T16:45:19.536Z,384.13
2019-03-25T16:47:49.350Z,388.07
2019-03-25T16:50:19.253Z,402.50
2019-03-25T16:52:48.948Z,390.18
2019-03-25T16:55:18.678Z,371.07
2019-03-25T16:57:48.299Z,396.18
2019-03-25T17:00:26.855Z,373.18
2019-03-25T17:02:49.530Z,354.82
2019-03-25T17:05:19.171Z,365.00
2019-03-25T17:07:48.820Z,386.40
2019-03-25T17:10:18.524Z,367.68
2019-03-25T17:12:48.265Z,386.92
2019-03-25T17:15:18.203Z,392.10
2019-03-25T17:17:47.841Z,393.35
2019-03-25T17:20:17.528Z,391.85
2019-03-25T17:22:47.291Z,375.30
2019-03-25T17:25:17.080Z,372.35
2019-03-25T17:27:46.699Z,367.13
2019-03-25T17:30:18.859Z,392.80
2019-03-25T17:32:48.437Z,389.93
2019-03-25T17:35:18.126Z,358.90
2019-03-25T17:37:47.865Z,371.93
2019-03-25T17:40:17.689Z,379.45
2019-03-25T17:42:47.367Z,397.07
2019-03-25T17:45:17.440Z,462.90
2019-03-25T17:47:47.054Z,459.80
2019-03-25T17:50:16.909Z,563.90
2019-03-25T17:52:46.506Z,527.30
2019-03-25T17:55:16.507Z,504.65
2019-03-25T17:57:46.280Z,477.28
2019-03-25T18:00:17.569Z,491.60
2019-03-25T18:02:47.331Z,473.10
2019-03-25T18:05:17.057Z,486.50
2019-03-25T18:07:46.772Z,472.73
2019-03-25T18:10:16.550Z,478.02
2019-03-25T18:12:46.227Z,466.27
2019-03-25T18:15:15.958Z,466.12
2019-03-25T18:17:45.675Z,460.63
2019-03-25T18:20:18.934Z,459.73
2019-03-25T18:22:46.787Z,435.27
2019-03-25T18:25:16.394Z,438.48
2019-03-25T18:27:46.148Z,450.57
2019-03-25T18:30:17.330Z,443.90
2019-03-25T18:32:46.903Z,434.98
2019-03-25T18:35:19.640Z,443.73
2019-03-25T18:37:49.218Z,453.30
2019-03-25T18:40:18.866Z,444.30
2019-03-25T18:42:48.523Z,430.48
2019-03-25T18:45:18.311Z,447.57
2019-03-25T18:47:48.445Z,447.33
2019-03-25T18:50:18.681Z,444.93
2019-03-25T18:52:48.297Z,441.83
2019-03-25T18:55:17.910Z,432.68
2019-03-25T18:57:47.582Z,427.85
2019-03-25T19:00:20.267Z,429.40
2019-03-25T19:02:49.923Z,434.35
2019-03-25T19:05:19.530Z,439.73
2019-03-25T19:07:49.127Z,425.32
2019-03-25T19:10:21.919Z,429.35
2019-03-25T19:12:51.529Z,440.10
2019-03-25T19:15:21.172Z,436.55
2019-03-25T19:17:50.791Z,429.42
2019-03-25T19:20:20.464Z,445.30
2019-03-25T19:22:50.125Z,439.50
2019-03-25T19:25:19.791Z,439.00
2019-03-25T19:27:49.389Z,443.67
2019-03-25T19:30:19.164Z,428.20
2019-03-25T19:32:48.815Z,448.00
2019-03-25T19:35:18.440Z,445.42
2019-03-25T19:37:48.050Z,430.55
2019-03-25T19:40:17.799Z,443.85
2019-03-25T19:42:47.580Z,424.18
2019-03-25T19:45:17.540Z,437.23
2019-03-25T19:47:47.182Z,433.05
2019-03-25T19:50:18.004Z,415.77
2019-03-25T19:52:47.815Z,421.65
2019-03-25T19:55:17.479Z,422.52
2019-03-25T19:57:47.127Z,424.40
2019-03-25T20:00:19.502Z,432.82
2019-03-25T20:02:49.216Z,415.17
2019-03-25T20:05:18.822Z,423.52
2019-03-25T20:07:48.391Z,420.30
2019-03-25T20:10:21.135Z,418.35
2019-03-25T20:12:50.776Z,419.52
2019-03-25T20:15:20.490Z,417.95
2019-03-25T20:17:50.057Z,409.00
2019-03-25T20:20:19.712Z,434.43
2019-03-25T20:22:49.501Z,428.82
2019-03-25T20:25:19.150Z,426.77
2019-03-25T20:27:48.876Z,438.55
2019-03-25T20:30:19.090Z,445.97
2019-03-25T20:32:48.763Z,443.60
2019-03-25T20:35:18.499Z,460.07
2019-03-25T20:37:48.228Z,459.70
2019-03-25T20:40:17.890Z,469.50
2019-03-25T20:42:47.604Z,466.95
2019-03-25T20:45:18.478Z,473.73
2019-03-25T20:47:48.345Z,471.18
2019-03-25T20:50:18.029Z,482.03
2019-03-25T20:52:47.805Z,480.83
2019-03-25T20:55:17.495Z,492.37
2019-03-25T20:57:47.245Z,484.35
2019-03-25T21:00:20.039Z,495.08
2019-03-25T21:02:49.626Z,492.68
2019-03-25T21:05:19.330Z,492.05
2019-03-25T21:07:49.364Z,491.77
2019-03-25T21:10:19.008Z,485.10
2019-03-25T21:12:48.616Z,495.90
2019-03-25T21:15:18.289Z,493.13
2019-03-25T21:17:47.947Z,487.57
2019-03-25T21:20:17.572Z,501.13
2019-03-25T21:22:47.196Z,501.02
2019-03-25T21:25:16.845Z,489.67
2019-03-25T21:27:46.725Z,503.32
2019-03-25T21:30:16.565Z,495.05
2019-03-25T21:32:57.613Z,498.15
2019-03-25T21:35:17.802Z,507.37
2019-03-25T21:37:47.749Z,500.40
2019-03-25T21:40:18.983Z,490.20
2019-03-25T21:42:48.740Z,499.38
2019-03-25T21:45:18.451Z,491.70
2019-03-25T21:47:48.207Z,476.83
2019-03-25T21:50:17.995Z,471.12
2019-03-25T21:52:47.606Z,472.93
2019-03-25T21:55:17.333Z,473.30
2019-03-25T21:57:47.200Z,478.80
2019-03-25T22:00:17.796Z,481.07
2019-03-25T22:02:47.565Z,479.38
2019-03-25T22:05:17.146Z,480.07
2019-03-25T22:07:46.749Z,462.18
2019-03-25T22:10:16.427Z,465.10
2019-03-25T22:12:46.053Z,475.57
2019-03-25T22:15:15.789Z,481.82
2019-03-25T22:17:45.431Z,487.88
2019-03-25T22:20:15.415Z,506.43
2019-03-25T22:22:45.091Z,488.50
2019-03-25T22:25:15.080Z,496.93
2019-03-25T22:27:44.880Z,506.57
2019-03-25T22:30:14.591Z,501.70
2019-03-25T22:32:44.250Z,498.43
2019-03-25T22:35:13.898Z,497.13
2019-03-25T22:37:43.469Z,508.80
2019-03-25T22:40:13.326Z,499.52
2019-03-25T22:42:43.006Z,502.55
2019-03-25T22:45:12.756Z,511.17
2019-03-25T22:47:42.490Z,515.77
2019-03-25T22:50:15.218Z,507.98
2019-03-25T22:52:44.871Z,508.55
2019-03-25T22:55:14.438Z,501.43
2019-03-25T22:57:44.234Z,505.30
2019-03-25T23:00:17.868Z,503.65
2019-03-25T23:02:47.670Z,503.30
2019-03-25T23:05:17.341Z,495.10
2019-03-25T23:07:46.964Z,487.05
2019-03-25T23:10:16.638Z,495.65
2019-03-25T23:16:35.180Z,477.55
2019-03-25T23:19:04.891Z,479.45
2019-03-25T23:21:34.499Z,493.60
2019-03-25T23:24:04.721Z,495.52
2019-03-25T23:26:34.492Z,465.05
2019-03-25T23:29:04.163Z,481.95
2019-03-25T23:31:33.758Z,467.07
2019-03-25T23:34:03.499Z,465.60
2019-03-25T23:36:33.111Z,455.98
2019-03-25T23:39:02.814Z,457.82
2019-03-25T23:41:32.385Z,460.15
2019-03-25T23:44:02.025Z,453.27
2019-03-25T23:46:31.864Z,442.33
2019-03-25T23:49:01.569Z,440.90
2019-03-25T23:51:31.165Z,445.73
2019-03-25T23:54:02.471Z,445.07
2019-03-25T23:56:32.078Z,438.47
2019-03-25T23:59:01.775Z,434.48
